Time;durP1;ratioP1;P1;durP2;ratioP2;P2;SDS_P1;SDS_P2;PMS_P1;PMS_P2;Temp;Humidity;BMP_temperature;BMP_pressure;BME280_temperature;BME280_humidity;BME280_pressure;Samples;Min_cycle;Max_cycle;Signal;HPM_P1;HPM_P2
2021/08/30 00:02:17;;;;;;;1.47;0.60;;;14.00;99.90;;;;;;5092593;28;20528;-68
2021/08/30 00:04:45;;;;;;;1.30;0.50;;;14.00;99.90;;;;;;5076463;28;20436;-68
2021/08/30 00:07:12;;;;;;;1.40;0.63;;;14.00;99.90;;;;;;5072305;28;20505;-68
2021/08/30 00:09:39;;;;;;;1.30;0.50;;;13.90;99.90;;;;;;5086049;28;20492;-68
2021/08/30 00:12:07;;;;;;;1.50;0.60;;;13.90;99.90;;;;;;5092427;28;20427;-68
2021/08/30 00:14:35;;;;;;;1.60;0.70;;;13.90;99.90;;;;;;5078551;28;20476;-69
2021/08/30 00:17:03;;;;;;;1.50;0.83;;;13.90;99.90;;;;;;5081462;28;20441;-68
2021/08/30 00:19:32;;;;;;;1.40;0.70;;;13.90;99.90;;;;;;5092555;28;20438;-68
2021/08/30 00:21:59;;;;;;;1.53;0.73;;;13.90;99.90;;;;;;5083295;28;20471;-68
2021/08/30 00:24:26;;;;;;;1.60;0.90;;;13.90;99.90;;;;;;5072060;28;20436;-68
2021/08/30 00:26:54;;;;;;;1.43;0.60;;;13.90;99.90;;;;;;5080762;28;20528;-68
2021/08/30 00:29:25;;;;;;;1.63;0.60;;;13.80;99.90;;;;;;5092742;28;20432;-69
2021/08/30 00:31:53;;;;;;;1.80;0.80;;;13.80;99.90;;;;;;5075939;28;20506;-68
2021/08/30 00:34:20;;;;;;;5.30;0.77;;;13.80;99.90;;;;;;5077817;28;20482;-68
2021/08/30 00:36:48;;;;;;;2.60;0.70;;;13.80;99.90;;;;;;5095951;28;20884;-68
2021/08/30 00:39:16;;;;;;;1.30;0.50;;;13.80;99.90;;;;;;5094623;28;20851;-69
2021/08/30 00:41:43;;;;;;;1.30;0.57;;;13.80;99.90;;;;;;5075871;28;20432;-68
2021/08/30 00:44:11;;;;;;;1.40;0.70;;;13.80;99.90;;;;;;5075728;28;20836;-69
2021/08/30 00:46:37;;;;;;;1.30;0.40;;;13.80;99.90;;;;;;5055849;28;20440;-71
2021/08/30 00:49:06;;;;;;;1.40;0.50;;;13.80;99.90;;;;;;5055640;28;20441;-68
2021/08/30 00:51:34;;;;;;;1.30;0.50;;;13.70;99.90;;;;;;5094822;28;20438;-69
2021/08/30 00:54:01;;;;;;;1.50;0.67;;;13.70;99.90;;;;;;5095916;28;20437;-69
2021/08/30 00:56:28;;;;;;;1.47;0.77;;;13.70;99.90;;;;;;5077143;28;20479;-68
2021/08/30 00:58:56;;;;;;;1.40;0.70;;;13.70;99.90;;;;;;5075433;28;20436;-68
2021/08/30 01:01:23;;;;;;;1.50;0.70;;;13.70;99.90;;;;;;5091819;28;20538;-68
2021/08/30 01:03:52;;;;;;;1.40;0.50;;;13.70;99.90;;;;;;5095820;28;20828;-69
2021/08/30 01:06:25;;;;;;;1.30;0.60;;;13.70;99.90;;;;;;5079202;28;20447;-69
2021/08/30 01:08:59;;;;;;;2.57;0.70;;;13.70;99.90;;;;;;5075245;28;20451;-69
2021/08/30 01:11:31;;;;;;;2.50;0.60;;;13.70;99.90;;;;;;5091085;28;20426;-68
2021/08/30 01:14:03;;;;;;;1.40;0.60;;;13.80;99.90;;;;;;5095414;28;20419;-68
2021/08/30 01:16:33;;;;;;;2.13;0.67;;;13.80;99.90;;;;;;5078675;28;20851;-68
2021/08/30 01:19:02;;;;;;;1.63;0.60;;;13.80;99.90;;;;;;5080937;28;20435;-68
2021/08/30 01:21:34;;;;;;;2.27;0.57;;;13.80;99.90;;;;;;5095393;28;20512;-69
2021/08/30 01:24:09;;;;;;;1.40;0.60;;;13.80;99.90;;;;;;5093446;28;20500;-68
2021/08/30 01:26:40;;;;;;;1.30;0.50;;;13.80;99.90;;;;;;5095149;28;20947;-68
2021/08/30 01:29:15;;;;;;;1.40;0.80;;;13.80;99.90;;;;;;5088888;28;20443;-70
2021/08/30 01:31:49;;;;;;;1.40;0.53;;;13.70;99.90;;;;;;5083228;28;20986;-68
2021/08/30 01:34:19;;;;;;;1.30;0.40;;;13.70;99.90;;;;;;5088367;28;20432;-69
2021/08/30 01:36:47;;;;;;;1.37;0.50;;;13.70;99.90;;;;;;5074559;28;20479;-68
2021/08/30 01:39:15;;;;;;;1.60;0.60;;;13.70;99.90;;;;;;5079117;28;20439;-68
2021/08/30 01:41:44;;;;;;;1.50;0.50;;;13.70;99.90;;;;;;5095383;28;20810;-68
2021/08/30 01:44:12;;;;;;;1.50;0.60;;;13.70;99.90;;;;;;5089895;28;20606;-68
2021/08/30 01:46:40;;;;;;;1.40;0.60;;;13.70;99.90;;;;;;5074462;28;20486;-68
2021/08/30 01:49:08;;;;;;;1.30;0.50;;;13.70;99.90;;;;;;5077769;28;20443;-69
2021/08/30 01:51:39;;;;;;;1.30;0.50;;;13.60;99.90;;;;;;5094940;28;20439;-68
2021/08/30 01:54:07;;;;;;;1.80;0.63;;;13.60;99.90;;;;;;5091375;28;20952;-68
2021/08/30 01:56:35;;;;;;;1.73;0.60;;;13.70;99.90;;;;;;5075184;28;20483;-68
2021/08/30 02:01:48;;;;;;;1.30;0.50;;;13.60;99.90;;;;;;5091722;28;20455;-68
2021/08/30 02:04:15;;;;;;;1.30;0.53;;;13.70;99.90;;;;;;5074266;28;20436;-68
2021/08/30 02:06:44;;;;;;;2.23;0.60;;;13.70;99.90;;;;;;5074417;28;20567;-69
2021/08/30 02:09:11;;;;;;;1.40;0.60;;;13.70;99.90;;;;;;5094493;28;20514;-69
2021/08/30 02:11:38;;;;;;;1.30;0.50;;;13.70;99.90;;;;;;5093884;28;20431;-71
2021/08/30 02:14:08;;;;;;;1.67;0.63;;;13.70;99.90;;;;;;5054081;28;20491;-69
2021/08/30 02:16:36;;;;;;;1.60;0.67;;;13.70;99.90;;;;;;5054034;28;20480;-69
2021/08/30 02:19:12;;;;;;;1.43;0.70;;;13.80;99.90;;;;;;5093538;28;20449;-69
2021/08/30 02:21:44;;;;;;;1.60;0.80;;;13.80;99.90;;;;;;5094195;28;20900;-68
2021/08/30 02:24:20;;;;;;;1.40;0.50;;;13.80;99.90;;;;;;5092396;28;20438;-69
2021/08/30 02:26:51;;;;;;;1.53;0.60;;;13.80;99.90;;;;;;5094132;28;20430;-70
2021/08/30 02:29:22;;;;;;;1.50;0.80;;;13.80;99.90;;;;;;5053940;28;20510;-69
2021/08/30 02:31:55;;;;;;;1.60;0.60;;;13.80;99.90;;;;;;5053938;28;20444;-69
2021/08/30 02:34:25;;;;;;;1.37;0.50;;;13.80;99.90;;;;;;5053822;28;20452;-68
2021/08/30 02:36:54;;;;;;;2.00;0.83;;;13.80;99.90;;;;;;5053305;28;20488;-68
2021/08/30 02:39:22;;;;;;;1.60;0.60;;;13.80;99.90;;;;;;5093080;28;20450;-68
2021/08/30 02:41:52;;;;;;;1.40;0.70;;;13.90;99.90;;;;;;5093878;28;20488;-68
2021/08/30 02:44:19;;;;;;;1.70;0.83;;;13.90;99.90;;;;;;5073739;28;20835;-68
2021/08/30 02:46:47;;;;;;;2.20;1.00;;;13.90;99.90;;;;;;5073379;28;20436;-68
2021/08/30 02:49:15;;;;;;;2.00;0.80;;;13.90;99.90;;;;;;5090778;28;20443;-68
2021/08/30 02:51:44;;;;;;;1.77;0.50;;;13.90;99.90;;;;;;5093607;28;20435;-69
2021/08/30 02:54:14;;;;;;;2.43;0.80;;;13.90;99.90;;;;;;5076159;28;20432;-68
2021/08/30 02:56:43;;;;;;;1.63;0.80;;;13.90;99.90;;;;;;5073248;28;20483;-68
2021/08/30 02:59:11;;;;;;;1.50;0.77;;;13.80;99.90;;;;;;5088821;28;20450;-69
2021/08/30 03:01:39;;;;;;;1.40;0.50;;;13.80;99.90;;;;;;5093513;28;20477;-69
2021/08/30 03:04:06;;;;;;;1.50;0.60;;;13.80;99.90;;;;;;5077597;28;20432;-69
2021/08/30 03:06:34;;;;;;;1.40;0.63;;;13.70;99.90;;;;;;5073189;28;20447;-69
2021/08/30 03:09:01;;;;;;;2.30;0.67;;;13.70;99.90;;;;;;5086782;28;20480;-68
2021/08/30 03:11:32;;;;;;;1.40;0.60;;;13.60;99.90;;;;;;5093159;28;20435;-68
2021/08/30 03:14:00;;;;;;;2.33;0.57;;;13.60;99.90;;;;;;5079397;28;20449;-68
2021/08/30 03:16:29;;;;;;;3.20;0.97;;;13.60;99.90;;;;;;5072710;28;20569;-69
2021/08/30 03:18:59;;;;;;;4.40;0.57;;;13.60;99.90;;;;;;5084807;28;20440;-69
2021/08/30 03:21:27;;;;;;;1.40;0.60;;;13.60;99.90;;;;;;5092957;28;20443;-68
2021/08/30 03:23:56;;;;;;;2.03;0.80;;;13.50;99.90;;;;;;5081184;28;20448;-68
2021/08/30 03:26:25;;;;;;;1.50;0.63;;;13.40;99.90;;;;;;5072872;28;20443;-68
2021/08/30 03:28:54;;;;;;;1.50;0.60;;;13.40;99.90;;;;;;5082516;28;20431;-68
2021/08/30 03:31:24;;;;;;;4.80;0.70;;;13.50;99.90;;;;;;5089225;28;20439;-69
2021/08/30 03:33:52;;;;;;;1.60;0.70;;;13.50;99.90;;;;;;5072586;28;20442;-69
2021/08/30 03:36:19;;;;;;;1.40;0.60;;;13.60;99.90;;;;;;5074095;28;22307;-68
2021/08/30 03:38:46;;;;;;;1.40;0.50;;;13.70;99.90;;;;;;5092955;28;20427;-70
2021/08/30 03:41:15;;;;;;;1.60;0.70;;;13.70;99.90;;;;;;5091420;28;20863;-70
2021/08/30 03:43:43;;;;;;;1.90;0.77;;;13.70;99.90;;;;;;5072609;28;20436;-70
2021/08/30 03:46:13;;;;;;;1.90;0.60;;;13.70;99.90;;;;;;5072142;28;20816;-69
2021/08/30 03:48:42;;;;;;;1.70;0.80;;;13.70;99.90;;;;;;5092744;28;20431;-68
2021/08/30 03:51:11;;;;;;;2.10;0.77;;;13.80;99.90;;;;;;5092635;28;20439;-72
2021/08/30 03:53:39;;;;;;;1.50;0.60;;;13.80;99.90;;;;;;5073653;28;20468;-69
2021/08/30 03:56:07;;;;;;;1.63;0.73;;;13.80;99.90;;;;;;5074807;28;20628;-69
2021/08/30 03:58:36;;;;;;;1.47;0.53;;;13.80;99.90;;;;;;5092392;28;20435;-68
2021/08/30 04:01:06;;;;;;;1.47;0.60;;;13.80;99.90;;;;;;5089496;28;20492;-69
2021/08/30 04:03:38;;;;;;;1.50;0.60;;;13.80;99.90;;;;;;5072614;28;20440;-70
2021/08/30 04:06:07;;;;;;;5.40;0.87;;;13.80;99.90;;;;;;5074034;28;20493;-68
2021/08/30 04:08:34;;;;;;;1.30;0.50;;;13.80;99.90;;;;;;5092794;28;20435;-69
2021/08/30 04:11:02;;;;;;;1.40;0.60;;;13.80;99.90;;;;;;5091289;28;20488;-68
2021/08/30 04:13:30;;;;;;;1.40;0.60;;;13.80;99.90;;;;;;5072356;28;20505;-68
2021/08/30 04:15:57;;;;;;;1.40;0.60;;;13.80;99.90;;;;;;5072328;28;20845;-69
2021/08/30 04:18:24;;;;;;;3.10;0.80;;;13.80;99.90;;;;;;5091271;28;20470;-69
2021/08/30 04:20:52;;;;;;;1.47;0.70;;;13.80;99.90;;;;;;5092405;28;20439;-68
2021/08/30 04:23:20;;;;;;;1.40;0.60;;;13.80;99.90;;;;;;5073512;28;20443;-69
2021/08/30 04:25:47;;;;;;;1.70;0.70;;;13.80;99.90;;;;;;5072252;28;20447;-69
2021/08/30 04:28:14;;;;;;;1.50;0.50;;;13.80;99.90;;;;;;5089247;28;20470;-69
2021/08/30 04:30:41;;;;;;;4.90;1.10;;;13.80;99.90;;;;;;5092354;28;20442;-70
2021/08/30 04:33:10;;;;;;;1.90;0.90;;;13.80;99.90;;;;;;5076236;28;20436;-69
2021/08/30 04:35:38;;;;;;;4.40;0.87;;;13.80;99.90;;;;;;5071979;28;20563;-69
2021/08/30 04:38:07;;;;;;;1.50;0.70;;;13.90;99.90;;;;;;5086780;28;20464;-68
2021/08/30 04:40:37;;;;;;;1.50;0.90;;;13.80;99.90;;;;;;5092895;28;20438;-68
2021/08/30 04:43:05;;;;;;;1.40;0.70;;;13.90;99.90;;;;;;5073156;28;20443;-69
2021/08/30 04:45:32;;;;;;;1.40;0.50;;;13.80;99.90;;;;;;5070838;28;20493;-69
2021/08/30 04:47:59;;;;;;;1.60;0.70;;;13.80;99.90;;;;;;5083773;28;20447;-68
2021/08/30 04:50:26;;;;;;;1.50;0.60;;;13.80;99.90;;;;;;5091095;28;20439;-68
2021/08/30 04:52:53;;;;;;;1.37;0.50;;;13.80;99.90;;;;;;5089245;28;20443;-68
2021/08/30 04:55:22;;;;;;;1.40;0.60;;;13.70;99.90;;;;;;5091371;28;20435;-68
2021/08/30 04:57:49;;;;;;;1.40;0.60;;;13.70;99.90;;;;;;5080962;28;20507;-69
2021/08/30 05:00:17;;;;;;;1.40;0.57;;;13.60;99.90;;;;;;5070655;28;20443;-69
2021/08/30 05:02:44;;;;;;;1.60;0.60;;;13.50;99.90;;;;;;5071834;28;20449;-69
2021/08/30 05:05:11;;;;;;;1.60;0.80;;;13.40;99.90;;;;;;5071939;28;20440;-69
2021/08/30 05:07:38;;;;;;;1.80;0.87;;;13.40;99.90;;;;;;5083887;28;20435;-69
2021/08/30 05:10:07;;;;;;;1.77;0.80;;;13.40;99.90;;;;;;5082799;28;20497;-70
2021/08/30 05:12:35;;;;;;;3.10;0.83;;;13.30;99.90;;;;;;5072053;28;20777;-68
2021/08/30 05:15:03;;;;;;;1.40;0.60;;;13.30;99.90;;;;;;5082550;28;20488;-69
2021/08/30 05:17:30;;;;;;;1.70;0.80;;;13.30;99.90;;;;;;5095710;28;20482;-69
2021/08/30 05:19:57;;;;;;;2.50;1.00;;;13.30;99.90;;;;;;5089183;28;20463;-69
2021/08/30 05:22:24;;;;;;;2.13;0.77;;;13.20;99.90;;;;;;5091898;28;20466;-69
2021/08/30 05:24:51;;;;;;;2.83;0.90;;;13.30;99.90;;;;;;5077700;28;20448;-68
2021/08/30 05:27:19;;;;;;;2.47;0.90;;;13.30;99.90;;;;;;5073272;28;20501;-68
2021/08/30 05:29:49;;;;;;;3.80;1.33;;;13.30;99.90;;;;;;5073966;28;21332;-70
2021/08/30 05:32:19;;;;;;;5.63;1.00;;;13.40;99.90;;;;;;5080198;28;20980;-70
2021/08/30 05:34:46;;;;;;;3.70;1.00;;;13.50;99.90;;;;;;5086280;28;20472;-69
2021/08/30 05:37:15;;;;;;;3.90;1.00;;;13.60;99.90;;;;;;5080419;28;20479;-69
2021/08/30 05:39:42;;;;;;;2.50;0.83;;;13.60;99.90;;;;;;5082979;28;20431;-69
2021/08/30 05:42:10;;;;;;;1.67;0.90;;;13.70;99.90;;;;;;5092807;28;20508;-68
2021/08/30 05:44:38;;;;;;;1.77;0.80;;;13.70;99.90;;;;;;5086384;28;20444;-69
2021/08/30 05:47:07;;;;;;;1.60;0.80;;;13.70;99.90;;;;;;5074258;28;20436;-69
2021/08/30 05:49:34;;;;;;;2.00;1.10;;;13.80;99.90;;;;;;5071962;28;20467;-68
2021/08/30 05:52:01;;;;;;;3.97;2.27;;;13.80;99.90;;;;;;5070752;28;20528;-68
2021/08/30 05:54:29;;;;;;;3.47;1.67;;;13.80;99.90;;;;;;5074266;28;20505;-69
2021/08/30 05:56:56;;;;;;;4.10;2.90;;;13.80;99.90;;;;;;5083915;28;20485;-68
2021/08/30 05:59:23;;;;;;;3.67;1.53;;;13.90;99.90;;;;;;5083660;28;20447;-69
2021/08/30 06:01:50;;;;;;;1.90;0.80;;;13.90;99.90;;;;;;5090198;28;20439;-69
2021/08/30 06:04:19;;;;;;;1.90;0.77;;;14.00;99.90;;;;;;5073502;28;20440;-69
2021/08/30 06:06:46;;;;;;;1.60;0.80;;;13.90;99.90;;;;;;5085008;28;20431;-68
2021/08/30 06:09:13;;;;;;;1.40;0.80;;;13.90;99.90;;;;;;5084474;28;20467;-68
2021/08/30 06:11:41;;;;;;;1.77;1.03;;;14.00;99.90;;;;;;5054430;28;20437;-68
2021/08/30 06:14:08;;;;;;;1.80;1.00;;;14.00;99.90;;;;;;5074084;28;20934;-69
2021/08/30 06:16:35;;;;;;;1.90;1.10;;;14.00;99.90;;;;;;5074015;28;20532;-70
2021/08/30 06:19:04;;;;;;;2.17;1.10;;;14.00;99.90;;;;;;5063027;28;20441;-69
2021/08/30 06:21:38;;;;;;;1.90;0.90;;;14.00;99.90;;;;;;5053271;28;20451;-69
2021/08/30 06:24:06;;;;;;;2.20;1.20;;;14.00;99.90;;;;;;5053640;28;20543;-69
2021/08/30 06:26:36;;;;;;;1.90;0.80;;;14.00;99.90;;;;;;5082845;28;20997;-68
2021/08/30 06:29:06;;;;;;;2.03;1.07;;;14.10;99.90;;;;;;5094442;28;20489;-69
2021/08/30 06:31:33;;;;;;;1.70;1.07;;;14.00;99.90;;;;;;5095143;28;20442;-69
2021/08/30 06:34:05;;;;;;;2.40;1.10;;;14.10;99.90;;;;;;5094647;28;20859;-69
2021/08/30 06:36:33;;;;;;;1.80;0.90;;;14.10;99.90;;;;;;5094581;28;20494;-69
2021/08/30 06:39:01;;;;;;;1.70;0.90;;;14.10;99.90;;;;;;5094598;28;20483;-68
2021/08/30 06:41:28;;;;;;;1.70;0.90;;;14.10;99.90;;;;;;5094381;28;20475;-71
2021/08/30 06:43:56;;;;;;;1.77;0.83;;;14.10;99.90;;;;;;5087302;28;20515;-69
2021/08/30 06:46:23;;;;;;;1.83;0.90;;;14.10;99.90;;;;;;5061847;28;20465;-69
2021/08/30 06:48:50;;;;;;;2.57;0.87;;;14.10;99.90;;;;;;5072074;28;20543;-68
2021/08/30 06:51:17;;;;;;;2.73;0.97;;;14.10;99.90;;;;;;5072422;28;20946;-69
2021/08/30 06:53:44;;;;;;;3.13;1.00;;;14.20;99.90;;;;;;5068937;28;20440;-69
2021/08/30 06:56:13;;;;;;;1.80;0.87;;;14.20;99.90;;;;;;5059398;28;20447;-69
2021/08/30 06:58:43;;;;;;;2.00;1.30;;;14.20;99.90;;;;;;5052699;28;20559;-70
2021/08/30 07:01:10;;;;;;;2.03;1.27;;;14.30;99.90;;;;;;5071388;28;20535;-71
2021/08/30 07:03:37;;;;;;;1.80;1.03;;;14.30;99.90;;;;;;5071176;28;20493;-70
2021/08/30 07:06:04;;;;;;;2.10;1.00;;;14.30;99.90;;;;;;5069441;28;20463;-68
2021/08/30 07:08:31;;;;;;;1.60;0.90;;;14.30;99.90;;;;;;5062640;28;20487;-68
2021/08/30 07:10:58;;;;;;;4.60;1.00;;;14.30;99.90;;;;;;5064909;28;20432;-68
2021/08/30 07:13:27;;;;;;;1.97;0.83;;;14.20;99.90;;;;;;5068151;28;20443;-69
2021/08/30 07:15:54;;;;;;;2.20;1.13;;;14.30;99.90;;;;;;5068160;28;20530;-69
2021/08/30 07:18:21;;;;;;;1.83;0.77;;;14.30;99.90;;;;;;5066627;28;20494;-69
2021/08/30 07:20:49;;;;;;;2.13;1.00;;;14.30;99.90;;;;;;5067846;28;20472;-68
2021/08/30 07:23:18;;;;;;;1.80;0.80;;;14.20;99.90;;;;;;5067452;28;20479;-68
2021/08/30 07:25:45;;;;;;;1.60;0.77;;;14.30;99.90;;;;;;5067843;28;20436;-69
2021/08/30 07:28:12;;;;;;;1.37;0.50;;;14.30;99.90;;;;;;5066297;28;20483;-70
2021/08/30 07:30:40;;;;;;;1.67;1.00;;;14.30;99.90;;;;;;5067016;28;20946;-71
2021/08/30 07:33:07;;;;;;;7.93;5.23;;;14.20;99.90;;;;;;5067357;28;20472;-69
2021/08/30 07:35:34;;;;;;;5.50;2.77;;;14.30;99.90;;;;;;5066773;28;20528;-69
2021/08/30 07:38:01;;;;;;;2.13;1.23;;;14.30;99.90;;;;;;5064549;28;20572;-68
2021/08/30 07:40:30;;;;;;;5.23;3.07;;;14.30;99.90;;;;;;5065697;28;20445;-69
2021/08/30 07:42:58;;;;;;;4.20;2.70;;;14.30;99.90;;;;;;5065250;28;20480;-69
2021/08/30 07:45:27;;;;;;;9.77;5.37;;;14.30;99.90;;;;;;5064917;28;20444;-68
2021/08/30 07:47:56;;;;;;;2.10;1.03;;;14.40;99.90;;;;;;5063856;28;20527;-68
2021/08/30 07:50:23;;;;;;;1.70;0.80;;;14.40;99.90;;;;;;5064265;28;20480;-68
2021/08/30 07:52:55;;;;;;;2.87;0.90;;;14.50;99.90;;;;;;5063830;28;20455;-69
2021/08/30 07:55:22;;;;;;;1.60;0.80;;;14.50;99.90;;;;;;5062399;28;20537;-68
2021/08/30 07:57:49;;;;;;;1.60;0.70;;;14.50;99.90;;;;;;5061504;28;20537;-69
2021/08/30 08:00:17;;;;;;;1.50;0.70;;;14.50;99.90;;;;;;5060241;28;20509;-68
2021/08/30 08:02:51;;;;;;;1.70;0.70;;;14.50;99.90;;;;;;5064371;28;20485;-69
2021/08/30 08:05:20;;;;;;;1.80;0.90;;;14.60;99.90;;;;;;5061893;28;20472;-70
2021/08/30 08:07:47;;;;;;;1.50;0.63;;;14.60;99.90;;;;;;5061369;28;20479;-69
2021/08/30 08:10:18;;;;;;;1.60;0.80;;;14.60;99.90;;;;;;5061384;28;20479;-69
2021/08/30 08:12:45;;;;;;;1.60;0.70;;;14.60;99.90;;;;;;5061356;28;20474;-69
2021/08/30 08:15:12;;;;;;;1.37;0.50;;;14.70;99.90;;;;;;5061095;28;20444;-68
2021/08/30 08:17:39;;;;;;;1.70;0.90;;;14.70;99.90;;;;;;5060661;28;20900;-71
2021/08/30 08:20:07;;;;;;;1.63;0.70;;;14.70;99.90;;;;;;5060239;28;20473;-69
2021/08/30 08:22:36;;;;;;;1.90;0.73;;;14.70;99.90;;;;;;5058225;28;20437;-70
2021/08/30 08:25:06;;;;;;;1.73;0.70;;;14.60;99.90;;;;;;5056243;28;20437;-68
2021/08/30 08:27:34;;;;;;;1.37;0.60;;;14.60;99.90;;;;;;5059617;28;20839;-68
2021/08/30 08:30:01;;;;;;;1.80;0.80;;;14.60;99.90;;;;;;5060290;28;20528;-69
2021/08/30 08:32:33;;;;;;;1.70;0.87;;;14.60;99.90;;;;;;5058130;28;20800;-68
2021/08/30 08:35:01;;;;;;;1.70;0.70;;;14.60;99.90;;;;;;5058393;28;20523;-69
2021/08/30 08:37:33;;;;;;;1.80;1.00;;;14.70;99.90;;;;;;5057107;28;20490;-68
2021/08/30 08:40:02;;;;;;;1.70;0.70;;;14.70;99.90;;;;;;5058324;28;20448;-69
2021/08/30 08:42:29;;;;;;;1.80;1.00;;;14.80;99.90;;;;;;5058114;28;20526;-68
2021/08/30 08:44:58;;;;;;;2.77;1.47;;;14.80;99.90;;;;;;5058408;28;20440;-69
2021/08/30 08:47:26;;;;;;;2.33;1.10;;;14.80;99.90;;;;;;5059705;28;20435;-68
2021/08/30 08:49:53;;;;;;;4.10;2.30;;;14.90;99.90;;;;;;5062540;28;20854;-69
2021/08/30 08:52:21;;;;;;;3.10;1.70;;;14.90;99.90;;;;;;5062165;28;20590;-68
2021/08/30 08:54:48;;;;;;;2.00;1.00;;;14.90;99.90;;;;;;5061512;28;20923;-68
2021/08/30 08:57:17;;;;;;;1.70;0.60;;;15.00;99.90;;;;;;5060194;28;20477;-69
2021/08/30 08:59:56;;;;;;;2.00;0.90;;;15.00;99.90;;;;;;5060643;28;20468;-68
2021/08/30 09:02:28;;;;;;;1.80;0.80;;;15.00;99.90;;;;;;5060330;28;20436;-68
2021/08/30 09:04:57;;;;;;;2.27;1.00;;;15.10;99.90;;;;;;5063058;28;20444;-69
2021/08/30 09:07:30;;;;;;;1.87;0.70;;;15.20;99.90;;;;;;5059007;28;20498;-68
2021/08/30 09:09:59;;;;;;;2.13;0.80;;;15.20;99.90;;;;;;5059640;28;20439;-69
2021/08/30 09:12:27;;;;;;;1.60;0.80;;;15.20;99.90;;;;;;5062763;28;20483;-69
2021/08/30 09:15:10;;;;;;;1.83;0.83;;;15.30;99.90;;;;;;5059385;28;20476;-69
2021/08/30 09:17:48;;;;;;;1.70;0.73;;;15.30;99.90;;;;;;5057105;28;20587;-70
2021/08/30 09:20:16;;;;;;;3.27;1.20;;;15.40;99.90;;;;;;5060890;28;20428;-68
2021/08/30 09:22:43;;;;;;;1.90;0.60;;;15.40;99.90;;;;;;5060782;28;20532;-68
2021/08/30 09:25:12;;;;;;;3.17;0.90;;;15.50;99.90;;;;;;5057411;28;20465;-69
2021/08/30 09:27:43;;;;;;;1.67;0.67;;;15.50;99.90;;;;;;5059595;28;20495;-69
2021/08/30 09:30:16;;;;;;;2.13;0.73;;;15.50;99.90;;;;;;5060405;28;20544;-69
2021/08/30 09:32:47;;;;;;;2.70;1.40;;;15.50;99.90;;;;;;5056573;28;20464;-70
2021/08/30 09:35:16;;;;;;;1.90;0.70;;;15.40;99.90;;;;;;5060364;28;20474;-69
2021/08/30 09:37:46;;;;;;;1.70;0.70;;;15.30;99.90;;;;;;5056448;28;20484;-69
2021/08/30 09:40:15;;;;;;;5.27;1.30;;;15.30;99.90;;;;;;5056109;28;20472;-69
2021/08/30 09:42:47;;;;;;;2.23;0.80;;;15.20;99.90;;;;;;5059892;28;20466;-69
2021/08/30 09:45:16;;;;;;;2.23;0.70;;;15.10;99.90;;;;;;5058975;28;20447;-69
2021/08/30 09:47:50;;;;;;;1.30;0.50;;;15.00;99.90;;;;;;5056060;28;20436;-70
2021/08/30 09:50:17;;;;;;;1.60;0.50;;;14.90;99.90;;;;;;5054544;28;20451;-69
2021/08/30 09:52:44;;;;;;;1.90;0.60;;;14.70;99.90;;;;;;5054686;28;20459;-70
2021/08/30 09:55:12;;;;;;;1.90;0.50;;;14.60;99.90;;;;;;5066363;28;20524;-70
2021/08/30 09:57:46;;;;;;;4.30;0.77;;;14.60;99.90;;;;;;5073086;28;20480;-69
2021/08/30 10:00:16;;;;;;;1.50;0.50;;;14.50;99.90;;;;;;5064714;28;20953;-68
2021/08/30 10:02:46;;;;;;;2.10;0.70;;;14.50;99.90;;;;;;5066100;28;20445;-68
2021/08/30 10:05:14;;;;;;;2.33;0.70;;;14.40;99.90;;;;;;5058038;28;20464;-68
2021/08/30 10:07:42;;;;;;;5.90;1.10;;;14.30;99.90;;;;;;5071947;28;20997;-69
2021/08/30 10:10:10;;;;;;;1.50;0.50;;;14.30;99.90;;;;;;5068059;28;20501;-68
2021/08/30 10:12:38;;;;;;;5.27;0.80;;;14.30;99.90;;;;;;5070272;28;20486;-68
2021/08/30 10:15:06;;;;;;;3.40;1.20;;;14.20;99.90;;;;;;5070538;28;20468;-69
2021/08/30 10:17:35;;;;;;;1.50;0.70;;;14.20;99.90;;;;;;5068707;28;20473;-68
2021/08/30 10:20:05;;;;;;;2.13;0.87;;;14.10;99.90;;;;;;5069490;28;20476;-69
2021/08/30 10:22:32;;;;;;;2.63;0.90;;;14.10;99.90;;;;;;5069046;28;20527;-68
2021/08/30 10:25:02;;;;;;;2.27;1.03;;;14.10;99.90;;;;;;5068723;28;20958;-68
2021/08/30 10:27:32;;;;;;;1.93;0.70;;;14.20;99.90;;;;;;5062701;28;20440;-68
2021/08/30 10:30:10;;;;;;;2.23;0.80;;;14.30;99.90;;;;;;5068106;28;20452;-68
2021/08/30 10:32:40;;;;;;;1.50;0.60;;;14.40;99.90;;;;;;5067723;28;20433;-68
2021/08/30 10:35:18;;;;;;;2.37;0.90;;;14.60;99.90;;;;;;5068048;28;20480;-68
2021/08/30 10:37:50;;;;;;;1.50;0.60;;;14.90;99.90;;;;;;5068730;28;20483;-68
2021/08/30 10:40:22;;;;;;;2.53;1.10;;;15.20;99.90;;;;;;5067511;28;20854;-68
2021/08/30 10:43:05;;;;;;;4.90;2.07;;;15.40;99.90;;;;;;5060012;28;20444;-68
2021/08/30 10:45:38;;;;;;;3.20;1.70;;;15.80;99.90;;;;;;5063711;28;20440;-68
2021/08/30 10:48:14;;;;;;;3.17;2.10;;;16.00;99.90;;;;;;5065739;28;20448;-68
2021/08/30 10:51:04;;;;;;;3.70;2.80;;;16.10;99.90;;;;;;5067710;28;20440;-68
2021/08/30 10:53:54;;;;;;;7.33;4.80;;;16.10;99.90;;;;;;5063374;28;20489;-68
2021/08/30 10:56:30;;;;;;;4.47;4.17;;;16.10;99.90;;;;;;5057902;28;20479;-68
2021/08/30 10:59:06;;;;;;;3.40;3.10;;;16.20;99.90;;;;;;5063718;28;20572;-69
2021/08/30 11:01:39;;;;;;;2.30;1.50;;;16.20;99.90;;;;;;5059760;28;20448;-68
2021/08/30 11:04:09;;;;;;;2.40;1.27;;;16.20;99.90;;;;;;5060071;28;20925;-68
2021/08/30 11:06:39;;;;;;;2.20;1.20;;;16.20;99.90;;;;;;5057800;28;20437;-68
2021/08/30 11:09:06;;;;;;;2.27;1.10;;;16.20;99.90;;;;;;5059700;28;20560;-68
2021/08/30 11:11:34;;;;;;;2.10;1.00;;;16.20;99.90;;;;;;5061594;28;20515;-68
2021/08/30 11:14:04;;;;;;;1.83;0.93;;;16.20;99.90;;;;;;5058957;28;20913;-67
2021/08/30 11:16:33;;;;;;;1.70;0.87;;;16.20;99.90;;;;;;5060011;28;20444;-68
2021/08/30 11:19:02;;;;;;;2.70;1.70;;;16.20;99.90;;;;;;5059891;28;20511;-68
2021/08/30 11:21:46;;;;;;;2.33;1.37;;;16.20;99.90;;;;;;5062746;28;20538;-68
2021/08/30 11:24:30;;;;;;;3.40;2.10;;;16.20;99.90;;;;;;5061777;28;20476;-68
2021/08/30 11:26:59;;;;;;;3.80;2.20;;;16.20;99.90;;;;;;5057458;28;20945;-68
2021/08/30 11:29:27;;;;;;;3.70;1.60;;;16.20;99.90;;;;;;5059449;28;20538;-69
2021/08/30 11:31:54;;;;;;;6.93;4.00;;;16.30;99.90;;;;;;5064597;28;20486;-68
2021/08/30 11:34:30;;;;;;;3.43;2.43;;;16.30;99.90;;;;;;5060138;28;20441;-68
2021/08/30 11:37:00;;;;;;;3.37;1.70;;;16.30;99.90;;;;;;5062090;28;20463;-72
2021/08/30 11:39:28;;;;;;;1.80;0.97;;;16.40;99.90;;;;;;5058846;28;20904;-68
2021/08/30 11:41:59;;;;;;;2.17;1.10;;;16.70;99.90;;;;;;5062662;28;20440;-68
2021/08/30 11:44:29;;;;;;;2.40;1.03;;;16.70;99.90;;;;;;5059804;28;20489;-68
2021/08/30 11:46:58;;;;;;;1.93;1.00;;;16.90;99.90;;;;;;5060444;28;20536;-68
2021/08/30 11:49:28;;;;;;;1.70;0.90;;;16.80;99.90;;;;;;5059702;28;20926;-68
2021/08/30 11:51:58;;;;;;;2.10;0.87;;;16.80;99.90;;;;;;5061444;28;20448;-71
2021/08/30 11:54:32;;;;;;;1.60;0.83;;;16.80;99.90;;;;;;5059858;28;20480;-69
2021/08/30 11:57:00;;;;;;;2.73;1.10;;;16.80;99.90;;;;;;5058635;28;20543;-68
2021/08/30 11:59:33;;;;;;;4.00;2.10;;;16.80;99.90;;;;;;5059564;28;20897;-68
2021/08/30 12:02:02;;;;;;;5.13;3.90;;;16.80;99.90;;;;;;5059162;28;20452;-68
2021/08/30 12:04:31;;;;;;;2.87;1.93;;;16.80;99.90;;;;;;5059459;28;20475;-69
2021/08/30 12:07:00;;;;;;;2.20;1.30;;;16.90;99.90;;;;;;5058262;28;20479;-68
2021/08/30 12:09:40;;;;;;;3.23;2.60;;;17.20;99.90;;;;;;5059377;28;20479;-68
2021/08/30 12:12:16;;;;;;;2.63;1.50;;;17.30;99.90;;;;;;5059084;28;20444;-68
2021/08/30 12:14:53;;;;;;;2.20;1.10;;;17.50;99.90;;;;;;5061281;28;20514;-68
2021/08/30 12:17:22;;;;;;;2.47;1.53;;;17.70;99.90;;;;;;5059416;28;20968;-68
2021/08/30 12:19:52;;;;;;;4.00;2.20;;;17.90;99.90;;;;;;5058649;28;20487;-68
2021/08/30 12:22:24;;;;;;;4.23;2.10;;;18.00;99.90;;;;;;5059404;28;20541;-68
2021/08/30 12:25:04;;;;;;;2.43;1.63;;;18.20;99.90;;;;;;5065032;28;20484;-68
2021/08/30 12:27:32;;;;;;;2.50;1.23;;;18.40;99.90;;;;;;5060962;28;20966;-68
2021/08/30 12:30:13;;;;;;;2.77;1.50;;;18.50;99.90;;;;;;5061979;28;20475;-68
2021/08/30 12:33:03;;;;;;;2.53;0.93;;;18.60;99.90;;;;;;5060518;28;20539;-69
2021/08/30 12:35:31;;;;;;;2.33;1.20;;;18.80;99.90;;;;;;5061296;28;20864;-68
2021/08/30 12:38:00;;;;;;;2.13;1.10;;;18.80;98.70;;;;;;5061131;28;20444;-68
2021/08/30 12:40:30;;;;;;;2.93;1.30;;;19.10;99.90;;;;;;5061738;28;20922;-68
2021/08/30 12:42:58;;;;;;;3.13;1.60;;;19.60;99.90;;;;;;5060398;28;20931;-69
2021/08/30 12:45:25;;;;;;;2.07;1.20;;;20.00;99.90;;;;;;5063477;28;20880;-68
2021/08/30 12:47:52;;;;;;;1.60;0.80;;;20.30;99.10;;;;;;5058756;28;20864;-68
2021/08/30 12:50:19;;;;;;;2.70;1.87;;;20.60;97.10;;;;;;5059874;28;20475;-69
2021/08/30 12:52:46;;;;;;;2.73;1.50;;;20.70;96.60;;;;;;5062761;28;20468;-68
2021/08/30 12:55:13;;;;;;;2.63;1.63;;;20.80;96.20;;;;;;5061957;28;20528;-68
2021/08/30 12:57:42;;;;;;;2.10;1.13;;;20.80;96.60;;;;;;5057650;28;20464;-69
2021/08/30 13:00:12;;;;;;;1.80;0.97;;;20.90;96.40;;;;;;5058157;28;20571;-68
2021/08/30 13:02:42;;;;;;;1.60;0.70;;;21.10;96.80;;;;;;5058121;28;20523;-68